Аэропорт: Хабаровск-Новый. Хабаровск

ICAO: UHHH

METAR:
2018/05/20 23:00
UHHH 202300Z 27005MPS CAVOK 21/08 Q1013 R23L/090060 NOSIG RMK QFE753/1005
METAR:
2018/05/20 21:25
TAF UHHH 201948Z 2021/2203 26007MPS 9999 SCT030CB 
      TEMPO 2100/2104 31010MPS 5000 -SHRA 
     FM210600 04006MPS 9999 SCT010 SCT020CB 
     FM211200 09003MPS 9999 SCT006 SCT020